الصفحة الرئيسية
METAR-TAF:

METAR-TAF

مطار :

مطار شرورة المحلي

شرورة, السعودية

دائرة عرض: 17-28N, خط طول: 047-07E, ارتفاع: 720 متر

مراقبة الطقس الحالي

تاريخ ووقت الإصدار 51 دقيقة قبل الساعة 08:00UTC
ريح 10 عقدة من الشرق
درجة الحرارة 29°درجة مئوية
الرطوبة 20%
ضغط 1018 hPa
الرؤية 10 كم أو أكثر
الغيوم لا تقل 1500 م ولا وجود لمزنة ركامية السحاب الأسود

METAR: OESH 260800Z 10010KT CAVOK 29/04 Q1018 NOSIG

زمن: 11:51 (08:51 UTC)

توقعات

تاريخ ووقت الإصدار 9ساعات و 51 دقيقة قبل الساعة 23:00UTC
التوقعات صالحة من26 الساعة 00 UTC إلى 27 الساعة 06 UTC
ريح 8 عقدة من الشرق/الجنوب الشرقي
الرؤية 10 كم أو أكثر
الغيوم لا تقل 1500 م ولا وجود لمزنة ركامية السحاب الأسود
أصبح
من 26 الساعة 10 UTC إلى 26 الساعة 12 UTC
ريح 10 عقدة من الشمال الشرقي
أصبح
من 26 الساعة 12 UTC إلى 26 الساعة 14 UTC
ريح 8 عقدة من الشمال الشرقي
أصبح
من 27 الساعة 02 UTC إلى 27 الساعة 04 UTC
ريح 5 عقدة من الشرق/الجنوب الشرقي

TAF: OESH 252300Z 2600/2706 11008KT CAVOK BECMG 2610/2612 05010KT BECMG 2612/2614 05008KT BECMG 2702/2704 11005KT

أرصاد الطقس والتوقعات من أكثر من 4000 مطار (تقارير الطقس للمطار METAR والتنبؤ بالطقس بالمطارTAF).

المحطات المتاحة هي النقط الصفراء والحمراء على الخريطة.

حرك المؤشر فوق النقطة لمعرفة اسم المحطة.

ثم انقر لمعرفة أرصاد وتوقعات الطقس.

لتغيير الخارطة: اضغط على الأزرار الخضراء مع رمز الصليب الأسود للتكبير. على الزر الأخضر مع شرطة للتصغير، أو على الأسهم الخضراء للخرائط المجاورة.


METAR-TAF: